createdAt,value
2019-01-02T00:01:18.573Z,66.62
2019-01-02T00:03:46.894Z,66.64
2019-01-02T00:06:15.185Z,66.55
2019-01-02T00:08:43.670Z,66.72
2019-01-02T00:11:11.960Z,66.66
2019-01-02T00:13:42.005Z,66.63
2019-01-02T00:16:10.296Z,66.55
2019-01-02T00:18:40.327Z,66.37
2019-01-02T00:21:08.638Z,66.46
2019-01-02T00:23:38.660Z,66.47
2019-01-02T00:26:06.948Z,66.34
2019-01-02T00:28:35.271Z,66.08
2019-01-02T00:31:05.310Z,66.16
2019-01-02T00:33:33.608Z,66.10
2019-01-02T00:36:03.625Z,65.77
2019-01-02T00:38:31.926Z,65.73
2019-01-02T00:41:01.944Z,65.54
2019-01-02T00:43:30.266Z,65.78
2019-01-02T00:46:00.308Z,65.56
2019-01-02T00:48:28.611Z,65.62
2019-01-02T00:50:58.630Z,65.54
2019-01-02T00:53:46.381Z,65.49
2019-01-02T00:56:14.672Z,65.53
2019-01-02T00:58:42.974Z,65.30
2019-01-02T01:01:11.265Z,65.27
2019-01-02T01:03:39.564Z,65.42
2019-01-02T01:06:07.875Z,65.23
2019-01-02T01:08:36.173Z,65.13
2019-01-02T01:14:20.416Z,64.96
2019-01-02T01:16:48.702Z,64.70
2019-01-02T01:19:18.733Z,64.54
2019-01-02T01:21:47.042Z,64.39
2019-01-02T01:24:15.336Z,64.41
2019-01-02T01:26:43.633Z,64.14
2019-01-02T01:29:11.935Z,64.19
2019-01-02T01:31:41.949Z,64.34
2019-01-02T01:34:10.265Z,63.91
2019-01-02T01:36:38.549Z,63.86
2019-01-02T01:39:47.140Z,63.55
2019-01-02T01:42:15.730Z,63.20
2019-01-02T01:44:44.027Z,63.57
2019-01-02T01:47:14.038Z,63.46
2019-01-02T01:49:42.339Z,63.17
2019-01-02T01:52:10.644Z,63.05
2019-01-02T01:54:40.665Z,63.09
2019-01-02T01:57:08.955Z,63.23
2019-01-02T01:59:37.254Z,62.73
2019-01-02T02:02:05.542Z,62.89
2019-01-02T02:04:33.860Z,62.69
2019-01-02T02:07:03.878Z,62.79
2019-01-02T02:09:51.544Z,62.89
2019-01-02T02:12:19.849Z,62.60
2019-01-02T02:14:49.872Z,62.31
2019-01-02T02:17:18.174Z,62.59
2019-01-02T02:19:46.453Z,62.35
2019-01-02T02:22:16.465Z,62.21
2019-01-02T02:25:24.953Z,62.15
2019-01-02T02:27:53.262Z,61.95
2019-01-02T02:30:23.279Z,62.01
2019-01-02T02:33:10.707Z,61.38
2019-01-02T02:35:39.293Z,61.48
2019-01-02T02:38:09.307Z,61.57
2019-01-02T02:40:37.611Z,61.59
2019-01-02T02:43:05.889Z,61.38
2019-01-02T02:45:34.208Z,61.57
2019-01-02T02:50:53.096Z,61.51
2019-01-02T02:53:23.109Z,61.08
2019-01-02T02:55:53.136Z,61.37
2019-01-02T02:58:23.171Z,61.16
2019-01-02T03:01:33.311Z,61.29
2019-01-02T03:04:03.325Z,60.84
2019-01-02T03:06:33.351Z,60.99
2019-01-02T03:11:41.668Z,60.74
2019-01-02T03:14:09.946Z,61.05
2019-01-02T03:16:39.970Z,60.96
2019-01-02T03:19:10.005Z,61.16
2019-01-02T03:21:40.024Z,61.13
2019-01-02T03:24:10.035Z,61.33
2019-01-02T03:26:38.328Z,61.30
2019-01-02T03:29:06.633Z,61.52
2019-01-02T03:31:36.642Z,61.68
2019-01-02T03:34:06.672Z,61.78
2019-01-02T03:36:34.965Z,61.81
2019-01-02T03:41:42.409Z,62.07
2019-01-02T03:44:10.717Z,62.20
2019-01-02T03:46:39.026Z,62.23
2019-01-02T03:49:07.330Z,62.40
2019-01-02T03:51:35.617Z,62.61
2019-01-02T03:54:03.912Z,62.75
2019-01-02T03:56:32.219Z,63.06
2019-01-02T03:59:19.883Z,62.92
2019-01-02T04:01:48.201Z,62.92
2019-01-02T04:04:16.506Z,63.11
2019-01-02T04:06:44.798Z,63.24
2019-01-02T04:09:13.091Z,63.42
2019-01-02T04:12:00.503Z,63.28
2019-01-02T04:14:28.784Z,63.49
2019-01-02T04:16:57.070Z,63.66
2019-01-02T04:19:25.392Z,63.62
2019-01-02T04:21:53.703Z,63.55
2019-01-02T04:24:22.008Z,63.54
2019-01-02T04:27:09.726Z,63.59
2019-01-02T04:29:38.050Z,63.58
2019-01-02T04:32:06.334Z,63.51
2019-01-02T04:34:34.637Z,63.45
2019-01-02T04:37:02.923Z,63.55
2019-01-02T04:39:31.217Z,63.55
2019-01-02T04:41:59.521Z,63.57
2019-01-02T04:44:27.840Z,63.59
2019-01-02T04:46:56.125Z,63.42
2019-01-02T04:49:43.786Z,63.39
2019-01-02T04:52:12.094Z,63.38
2019-01-02T04:54:40.395Z,63.30
2019-01-02T04:57:08.680Z,63.18
2019-01-02T04:59:56.357Z,63.03
2019-01-02T05:02:24.652Z,62.59
2019-01-02T05:04:52.953Z,62.67
2019-01-02T05:07:21.235Z,62.87
2019-01-02T05:09:49.536Z,62.78
2019-01-02T05:12:17.851Z,62.16
2019-01-02T05:14:46.153Z,61.95
2019-01-02T05:17:14.467Z,61.85
2019-01-02T05:19:42.759Z,61.98
2019-01-02T05:22:11.048Z,61.54
2019-01-02T05:24:39.354Z,61.53
2019-01-02T05:27:07.663Z,61.47
2019-01-02T05:29:35.961Z,60.99
2019-01-02T05:32:04.249Z,61.15
2019-01-02T05:34:32.565Z,60.59
2019-01-02T05:37:00.873Z,60.50
2019-01-02T05:39:29.175Z,60.46
2019-01-02T05:41:57.459Z,60.63
2019-01-02T05:44:25.759Z,60.18
2019-01-02T05:46:54.039Z,60.18
2019-01-02T05:49:41.700Z,60.20
2019-01-02T05:52:09.990Z,60.07
2019-01-02T05:54:38.288Z,59.93
2019-01-02T05:57:06.569Z,59.69
2019-01-02T05:59:34.892Z,59.26
2019-01-02T06:04:50.439Z,59.25
2019-01-02T06:07:18.749Z,58.90
2019-01-02T06:12:21.462Z,58.83
2019-01-02T06:14:49.777Z,58.54
2019-01-02T06:17:18.085Z,58.50
2019-01-02T06:19:46.368Z,58.37
2019-01-02T06:22:14.670Z,57.90
2019-01-02T06:24:42.958Z,57.73
2019-01-02T06:27:11.254Z,57.79
2019-01-02T06:29:39.540Z,57.58
2019-01-02T06:32:07.869Z,57.57
2019-01-02T06:34:55.307Z,57.60
2019-01-02T06:37:23.593Z,57.57
2019-01-02T06:39:51.878Z,56.72
2019-01-02T06:42:20.172Z,57.10
2019-01-02T06:44:48.479Z,57.20
2019-01-02T06:47:36.143Z,57.03
2019-01-02T06:50:44.558Z,56.46
2019-01-02T06:53:12.849Z,56.49
2019-01-02T06:55:41.153Z,56.50
2019-01-02T06:58:09.434Z,56.20
2019-01-02T07:00:37.744Z,56.38
2019-01-02T07:03:06.038Z,56.49
2019-01-02T07:05:34.339Z,56.40
2019-01-02T07:08:02.651Z,55.68
2019-01-02T07:10:50.062Z,55.77
2019-01-02T07:13:18.366Z,56.06
2019-01-02T07:15:46.659Z,55.69
2019-01-02T07:18:14.946Z,55.64
2019-01-02T07:20:43.254Z,55.83
2019-01-02T07:23:11.557Z,55.62
2019-01-02T07:25:39.859Z,55.61
2019-01-02T07:28:08.159Z,55.86
2019-01-02T07:30:36.445Z,55.73
2019-01-02T07:33:44.949Z,55.84
2019-01-02T07:36:52.044Z,55.78
2019-01-02T07:43:12.671Z,55.62
2019-01-02T07:55:21.868Z,56.00
2019-01-02T07:58:30.304Z,55.95
2019-01-02T08:04:51.368Z,55.84
2019-01-02T08:07:58.495Z,56.06
2019-01-02T08:11:05.574Z,55.72
2019-01-02T08:14:12.678Z,55.79
2019-01-02T08:26:35.080Z,55.69
2019-01-02T08:29:42.179Z,55.73
2019-01-02T08:32:49.278Z,55.71
2019-01-02T08:35:56.367Z,55.16
2019-01-02T08:39:03.543Z,55.55
2019-01-02T08:42:10.623Z,55.22
2019-01-02T08:45:17.729Z,54.96
2019-01-02T08:51:38.593Z,54.52
2019-01-02T08:54:45.681Z,54.14
2019-01-02T09:01:06.845Z,53.72
2019-01-02T09:04:15.260Z,53.56
2019-01-02T09:13:24.049Z,53.23
2019-01-02T09:16:10.502Z,52.74
2019-01-02T09:18:44.831Z,52.47
2019-01-02T09:21:53.301Z,51.95
2019-01-02T09:25:00.399Z,52.38
2019-01-02T09:34:08.894Z,51.56
2019-01-02T09:37:16.057Z,51.00
2019-01-02T09:43:24.570Z,50.98
2019-01-02T09:46:31.898Z,49.97
2019-01-02T09:55:53.701Z,49.05
2019-01-02T10:08:03.438Z,48.05
2019-01-02T10:11:11.846Z,47.66
2019-01-02T10:14:18.931Z,48.52
2019-01-02T10:17:27.351Z,48.38
2019-01-02T10:26:49.484Z,47.66
2019-01-02T10:29:56.580Z,47.48
2019-01-02T10:33:05.065Z,46.54
2019-01-02T10:42:27.083Z,46.69
2019-01-02T10:45:34.189Z,46.22
2019-01-02T10:48:42.691Z,46.82
2019-01-02T10:51:49.780Z,46.62
2019-01-02T10:54:58.209Z,46.88
2019-01-02T10:58:05.298Z,46.34
2019-01-02T11:01:12.400Z,46.24
2019-01-02T11:04:20.874Z,46.66
2019-01-02T11:07:28.010Z,46.32
2019-01-02T11:13:36.450Z,46.52
2019-01-02T11:16:43.536Z,46.08
2019-01-02T11:19:50.638Z,46.06
2019-01-02T11:25:58.566Z,46.94
2019-01-02T11:29:07.094Z,46.55
2019-01-02T11:47:29.102Z,45.81
2019-01-02T11:49:57.299Z,45.33
2019-01-02T11:52:25.485Z,44.89
2019-01-02T11:54:53.686Z,44.42
2019-01-02T11:57:21.865Z,44.51
2019-01-02T11:59:50.065Z,43.69
2019-01-02T12:02:18.249Z,44.34
2019-01-02T12:04:46.452Z,43.78
2019-01-02T12:07:35.011Z,42.89
2019-01-02T12:13:04.314Z,43.54
2019-01-02T12:15:32.532Z,42.54
2019-01-02T12:18:00.702Z,43.36
2019-01-02T12:20:28.898Z,42.83
2019-01-02T12:22:57.085Z,42.11
2019-01-02T12:25:25.279Z,43.01
2019-01-02T12:27:53.460Z,41.80
2019-01-02T12:30:21.654Z,42.09
2019-01-02T12:32:49.842Z,42.16
2019-01-02T12:35:18.040Z,41.77
2019-01-02T12:37:46.221Z,41.87
2019-01-02T12:40:14.417Z,41.61
2019-01-02T12:42:42.607Z,42.07
2019-01-02T12:45:10.808Z,41.92
2019-01-02T12:47:39.004Z,41.68
2019-01-02T12:50:47.314Z,41.39
2019-01-02T12:53:15.498Z,41.82
2019-01-02T12:55:43.697Z,41.54
2019-01-02T12:58:11.874Z,41.20
2019-01-02T13:01:20.177Z,41.56
2019-01-02T13:04:27.155Z,41.18
2019-01-02T13:07:34.158Z,41.50
2019-01-02T13:16:43.570Z,40.89
2019-01-02T13:22:52.184Z,40.91
2019-01-02T13:29:00.856Z,40.62
2019-01-02T13:32:09.420Z,40.38
2019-01-02T13:38:30.750Z,41.19
2019-01-02T13:41:39.357Z,41.13
2019-01-02T13:48:00.184Z,41.43
2019-01-02T13:53:29.197Z,41.83
2019-01-02T13:55:57.403Z,42.12
2019-01-02T13:58:25.698Z,42.30
2019-01-02T14:00:53.920Z,42.35
2019-01-02T14:03:22.150Z,62.21
2019-01-02T14:05:50.344Z,64.80
2019-01-02T14:08:18.578Z,45.03
2019-01-02T14:10:46.782Z,43.38
2019-01-02T14:13:15.007Z,42.54
2019-01-02T14:15:43.205Z,42.62
2019-01-02T14:18:11.489Z,43.27
2019-01-02T14:20:39.696Z,42.51
2019-01-02T14:23:07.948Z,42.85
2019-01-02T14:25:36.202Z,42.81
2019-01-02T14:28:04.410Z,43.19
2019-01-02T14:30:32.691Z,43.40
2019-01-02T14:33:00.884Z,43.62
2019-01-02T14:35:29.076Z,43.59
2019-01-02T14:37:57.270Z,43.62
2019-01-02T14:40:25.454Z,43.74
2019-01-02T14:42:53.650Z,43.69
2019-01-02T14:45:21.835Z,43.96
2019-01-02T14:47:50.013Z,43.95
2019-01-02T14:50:18.210Z,43.94
2019-01-02T14:52:46.394Z,44.14
2019-01-02T14:55:34.018Z,44.26
2019-01-02T14:58:02.198Z,44.27
2019-01-02T15:00:30.393Z,44.24
2019-01-02T15:02:58.580Z,44.36
2019-01-02T15:05:26.778Z,44.75
2019-01-02T15:07:54.961Z,44.31
2019-01-02T15:10:23.157Z,44.40
2019-01-02T15:12:51.344Z,44.53
2019-01-02T15:15:19.537Z,44.92
2019-01-02T15:17:47.718Z,44.90
2019-01-02T15:20:15.913Z,45.01
2019-01-02T15:22:44.201Z,45.10
2019-01-02T15:25:12.370Z,45.15
2019-01-02T15:27:40.554Z,45.14
2019-01-02T15:30:48.864Z,45.39
2019-01-02T15:33:17.052Z,45.46
2019-01-02T15:35:48.943Z,45.41
2019-01-02T15:38:15.149Z,45.48
2019-01-02T15:40:43.357Z,45.53
2019-01-02T15:43:11.529Z,45.41
2019-01-02T15:45:39.723Z,45.59
2019-01-02T15:48:07.907Z,45.65
2019-01-02T15:50:36.106Z,45.75
2019-01-02T15:53:04.284Z,45.86
2019-01-02T15:55:32.472Z,46.05
2019-01-02T15:58:00.662Z,46.08
2019-01-02T16:00:28.853Z,46.17
2019-01-02T16:02:57.034Z,46.54
2019-01-02T16:05:25.230Z,46.69
2019-01-02T16:07:53.411Z,47.08
2019-01-02T16:10:21.591Z,47.34
2019-01-02T16:12:49.789Z,47.47
2019-01-02T16:15:17.978Z,47.73
2019-01-02T16:17:46.173Z,48.00
2019-01-02T16:20:14.367Z,48.06
2019-01-02T16:22:42.554Z,48.17
2019-01-02T16:25:10.736Z,48.25
2019-01-02T16:27:38.939Z,48.40
2019-01-02T16:33:20.856Z,48.73
2019-01-02T16:35:49.042Z,48.74
2019-01-02T16:38:17.241Z,48.77
2019-01-02T16:40:45.426Z,49.09
2019-01-02T16:43:13.622Z,49.40
2019-01-02T16:45:41.803Z,49.43
2019-01-02T16:48:50.114Z,49.73
2019-01-02T16:51:18.328Z,49.62
2019-01-02T16:53:46.510Z,49.62
2019-01-02T16:56:14.695Z,49.80
2019-01-02T16:58:42.888Z,49.80
2019-01-02T17:01:11.072Z,50.06
2019-01-02T17:03:39.266Z,50.15
2019-01-02T17:06:07.458Z,50.15
2019-01-02T17:08:35.649Z,50.38
2019-01-02T17:11:03.840Z,50.23
2019-01-02T17:13:32.037Z,50.31
2019-01-02T17:16:00.255Z,50.27
2019-01-02T17:18:28.423Z,50.22
2019-01-02T17:20:56.609Z,50.36
2019-01-02T17:23:24.796Z,50.31
2019-01-02T17:25:52.980Z,50.26
2019-01-02T17:28:21.174Z,50.46
2019-01-02T17:30:49.353Z,50.49
2019-01-02T17:33:17.556Z,50.46
2019-01-02T17:35:45.747Z,50.54
2019-01-02T17:38:13.935Z,50.60
2019-01-02T17:40:42.123Z,50.70
2019-01-02T17:43:10.322Z,50.67
2019-01-02T17:45:38.504Z,50.78
2019-01-02T17:48:06.698Z,50.68
2019-01-02T17:50:34.877Z,50.76
2019-01-02T17:53:03.079Z,50.80
2019-01-02T17:55:31.266Z,50.74
2019-01-02T17:57:59.467Z,50.75
2019-01-02T18:00:27.655Z,50.77
2019-01-02T18:02:55.853Z,50.77
2019-01-02T18:05:24.100Z,50.98
2019-01-02T18:07:52.302Z,50.94
2019-01-02T18:10:20.486Z,50.98
2019-01-02T18:12:48.684Z,51.04
2019-01-02T18:15:16.868Z,51.11
2019-01-02T18:17:45.068Z,51.12
2019-01-02T18:20:13.250Z,51.19
2019-01-02T18:22:41.519Z,51.29
2019-01-02T18:25:09.635Z,51.36
2019-01-02T18:27:37.815Z,51.36
2019-01-02T18:30:46.123Z,51.34
2019-01-02T18:33:14.319Z,51.36
2019-01-02T18:35:42.498Z,51.33
2019-01-02T18:38:10.693Z,51.43
2019-01-02T18:40:38.870Z,51.47
2019-01-02T18:43:07.073Z,51.36
2019-01-02T18:45:35.256Z,51.54
2019-01-02T18:48:03.451Z,51.57
2019-01-02T18:50:31.633Z,51.52
2019-01-02T18:52:59.813Z,51.59
2019-01-02T18:55:28.005Z,51.63
2019-01-02T18:57:56.186Z,51.70
2019-01-02T19:00:24.383Z,51.69
2019-01-02T19:02:52.566Z,51.63
2019-01-02T19:05:20.792Z,51.81
2019-01-02T19:07:48.935Z,51.79
2019-01-02T19:10:17.130Z,51.79
2019-01-02T19:12:45.314Z,51.82
2019-01-02T19:15:13.525Z,51.86
2019-01-02T19:17:41.711Z,51.89
2019-01-02T19:20:09.914Z,51.97
2019-01-02T19:22:38.104Z,52.09
2019-01-02T19:25:46.472Z,52.09
2019-01-02T19:28:14.652Z,52.07
2019-01-02T19:31:22.960Z,52.03
2019-01-02T19:33:51.163Z,52.14
2019-01-02T19:36:19.349Z,52.13
2019-01-02T19:38:47.549Z,52.24
2019-01-02T19:41:15.744Z,52.25
2019-01-02T19:43:43.931Z,52.34
2019-01-02T19:46:12.131Z,52.35
2019-01-02T19:48:40.324Z,52.37
2019-01-02T19:51:08.516Z,52.49
2019-01-02T19:53:36.698Z,52.59
2019-01-02T19:56:04.894Z,52.58
2019-01-02T19:58:33.115Z,52.60
2019-01-02T20:01:01.313Z,52.55
2019-01-02T20:03:29.500Z,52.68
2019-01-02T20:05:57.697Z,52.76
2019-01-02T20:08:25.881Z,52.79
2019-01-02T20:10:54.079Z,52.78
2019-01-02T20:13:22.252Z,52.85
2019-01-02T20:15:50.445Z,52.87
2019-01-02T20:18:18.627Z,52.97
2019-01-02T20:20:46.826Z,53.00
2019-01-02T20:23:34.430Z,53.06
2019-01-02T20:26:02.624Z,53.22
2019-01-02T20:28:30.805Z,53.22
2019-01-02T20:30:58.998Z,53.31
2019-01-02T20:33:27.179Z,53.34
2019-01-02T20:35:55.376Z,53.43
2019-01-02T20:38:23.563Z,53.41
2019-01-02T20:40:51.781Z,53.35
2019-01-02T20:43:19.954Z,53.49
2019-01-02T20:45:48.152Z,53.50
2019-01-02T20:51:03.598Z,53.64
2019-01-02T20:53:31.773Z,53.65
2019-01-02T20:55:59.971Z,53.79
2019-01-02T20:58:28.154Z,53.83
2019-01-02T21:00:56.347Z,54.02
2019-01-02T21:03:24.544Z,54.30
2019-01-02T21:05:52.806Z,54.29
2019-01-02T21:08:20.993Z,54.26
2019-01-02T21:10:49.198Z,54.32
2019-01-02T21:13:17.365Z,54.46
2019-01-02T21:15:45.605Z,54.49
2019-01-02T21:18:13.790Z,54.50
2019-01-02T21:20:41.977Z,54.59
2019-01-02T21:23:10.170Z,54.51
2019-01-02T21:28:39.328Z,54.56
2019-01-02T21:31:07.510Z,54.57
2019-01-02T21:33:35.713Z,54.57
2019-01-02T21:36:03.896Z,54.64
2019-01-02T21:38:32.120Z,54.72
2019-01-02T21:41:00.301Z,54.90
2019-01-02T21:43:28.503Z,54.94
2019-01-02T21:45:56.688Z,55.14
2019-01-02T21:48:24.885Z,55.17
2019-01-02T21:50:53.062Z,55.23
2019-01-02T21:53:21.259Z,55.40
2019-01-02T21:55:49.441Z,55.58
2019-01-02T21:58:17.630Z,55.78
2019-01-02T22:00:45.883Z,55.96
2019-01-02T22:03:14.078Z,55.94
2019-01-02T22:05:42.263Z,55.94
2019-01-02T22:08:10.458Z,56.16
2019-01-02T22:10:38.643Z,56.21
2019-01-02T22:13:06.839Z,56.22
2019-01-02T22:15:35.035Z,56.28
2019-01-02T22:18:03.223Z,56.32
2019-01-02T22:20:31.405Z,56.39
2019-01-02T22:22:59.604Z,56.49
2019-01-02T22:25:27.789Z,56.62
2019-01-02T22:27:55.985Z,56.66
2019-01-02T22:30:24.171Z,56.72
2019-01-02T22:32:52.404Z,56.84
2019-01-02T22:35:20.593Z,56.83
2019-01-02T22:37:48.778Z,57.04
2019-01-02T22:40:16.977Z,57.38
2019-01-02T22:42:45.163Z,57.66
2019-01-02T22:45:13.361Z,57.68
2019-01-02T22:47:41.545Z,57.67
2019-01-02T22:50:09.744Z,57.67
2019-01-02T22:52:37.924Z,57.83
2019-01-02T22:55:06.120Z,58.05
2019-01-02T22:57:34.313Z,58.23
2019-01-02T23:00:02.517Z,58.42
2019-01-02T23:05:38.694Z,58.27
2019-01-02T23:08:26.025Z,58.34
2019-01-02T23:11:13.325Z,58.33
2019-01-02T23:14:00.631Z,58.40
2019-01-02T23:16:47.932Z,58.48
2019-01-02T23:19:35.242Z,58.58
2019-01-02T23:22:22.548Z,58.78
2019-01-02T23:25:09.853Z,58.89
2019-01-02T23:27:57.147Z,58.95
2019-01-02T23:30:44.461Z,59.12
2019-01-02T23:33:31.758Z,59.32
2019-01-02T23:36:19.092Z,59.34
2019-01-02T23:39:06.686Z,59.84
2019-01-02T23:41:53.994Z,59.72
2019-01-02T23:47:16.635Z,59.90
2019-01-02T23:50:03.950Z,59.99
2019-01-02T23:52:51.246Z,60.08
2019-01-02T23:55:38.563Z,60.04
2019-01-02T23:58:25.864Z,60.09
